Phoenix, Arizona
Current Conditions -  °F | °C
As of 11:51 PM on Thursday 18 Dec 2014 (Local Time) from KPHX Reporting Station
Clear Clear  
Wind Chill: 11°   Ceiling: Unl
Heat Index: 11°   Visibility: 10mi
Dew Point:   Wind: 5mph
Humidity: 74%   Direction: 100°E
Pressure: 30.17"   Gusts: NA
Location:  33.45°N, 112.08°W
Report Text: KPHX 190651Z 10004KT 10SM CLR 11/06 A3017 RMK AO2 SLP212 T01060061 401670100
Loading
Personal Weather Stations






























Interactive Weather Map New forecast layout! Learn more

10-Day Weather Forecast

Advertisements
Track Severe Weather on mobile